Time;durP1;ratioP1;P1;durP2;ratioP2;P2;SDS_P1;SDS_P2;PMS_P1;PMS_P2;Temp;Humidity;BMP_temperature;BMP_pressure;BME280_temperature;BME280_humidity;BME280_pressure;Samples;Min_cycle;Max_cycle;Signal;HPM_P1;HPM_P2
2023/07/17 00:00:56;;;;;;;12.65;11.45;;;26.40;54.80;;;;;;6109473;23;114194;-79
2023/07/17 00:03:23;;;;;;;19.35;17.58;;;26.50;54.70;;;;;;6111012;23;114013;-79
2023/07/17 00:05:51;;;;;;;13.07;11.93;;;26.50;55.10;;;;;;6108090;23;114966;-78
2023/07/17 00:08:18;;;;;;;13.18;12.10;;;26.40;55.00;;;;;;6108942;23;115742;-78
2023/07/17 00:10:45;;;;;;;13.23;12.13;;;26.40;54.80;;;;;;6111421;23;114329;-78
2023/07/17 00:13:12;;;;;;;13.45;12.18;;;26.40;54.80;;;;;;6111189;23;114031;-79
2023/07/17 00:15:39;;;;;;;14.18;12.88;;;26.40;54.70;;;;;;6110180;23;115037;-78
2023/07/17 00:18:07;;;;;;;14.80;13.30;;;26.40;55.00;;;;;;6110257;23;114601;-79
2023/07/17 00:20:34;;;;;;;13.70;12.45;;;26.40;54.80;;;;;;6109301;23;114330;-79
2023/07/17 00:23:01;;;;;;;12.50;11.48;;;26.40;54.70;;;;;;6110163;23;114197;-79
2023/07/17 00:25:31;;;;;;;13.45;12.25;;;26.50;54.60;;;;;;6110026;23;117494;-79
2023/07/17 00:27:58;;;;;;;13.20;12.00;;;26.50;54.70;;;;;;6110115;23;114645;-79
2023/07/17 00:30:26;;;;;;;19.92;17.95;;;26.50;54.50;;;;;;6134006;22;114395;-77
2023/07/17 00:32:53;;;;;;;14.15;12.77;;;26.50;54.70;;;;;;6109382;23;114512;-78
2023/07/17 00:35:21;;;;;;;17.50;15.95;;;26.50;54.60;;;;;;6108480;23;114967;-79
2023/07/17 00:37:48;;;;;;;14.25;12.98;;;26.50;54.90;;;;;;6110064;23;114588;-78
2023/07/17 00:40:15;;;;;;;12.55;11.40;;;26.50;54.60;;;;;;6111062;23;113971;-79
2023/07/17 00:42:42;;;;;;;13.93;12.63;;;26.40;54.40;;;;;;6111171;23;114073;-79
2023/07/17 00:45:09;;;;;;;15.77;14.25;;;26.50;54.40;;;;;;6108869;23;114754;-78
2023/07/17 00:47:37;;;;;;;13.65;12.15;;;26.50;54.60;;;;;;6110592;22;115793;-79
2023/07/17 00:50:05;;;;;;;13.23;12.10;;;26.50;54.40;;;;;;6109522;23;114085;-79
2023/07/17 00:52:32;;;;;;;14.43;13.02;;;26.50;54.40;;;;;;6110131;22;114294;-79
2023/07/17 00:55:00;;;;;;;13.23;11.93;;;26.50;54.40;;;;;;6107870;23;115461;-79
2023/07/17 00:57:27;;;;;;;13.75;12.00;;;26.50;54.30;;;;;;6133345;22;115787;-79
2023/07/17 00:59:56;;;;;;;17.38;15.57;;;26.50;54.30;;;;;;6109475;23;114128;-78
2023/07/17 01:02:23;;;;;;;12.57;11.38;;;26.50;54.40;;;;;;6110988;23;114205;-78
2023/07/17 01:04:51;;;;;;;12.85;11.55;;;26.50;54.20;;;;;;6109211;22;114790;-79
2023/07/17 01:07:19;;;;;;;13.38;12.18;;;26.50;54.20;;;;;;6133725;22;114830;-78
2023/07/17 01:09:46;;;;;;;12.68;11.55;;;26.40;54.20;;;;;;6109545;23;114512;-79
2023/07/17 01:12:15;;;;;;;12.85;11.55;;;26.40;54.30;;;;;;6111563;22;114210;-78
2023/07/17 01:14:42;;;;;;;13.27;11.98;;;26.40;54.20;;;;;;6133379;22;116562;-78
2023/07/17 01:17:09;;;;;;;11.80;10.60;;;26.40;54.20;;;;;;6133481;22;114769;-78
2023/07/17 01:19:38;;;;;;;13.02;11.70;;;26.40;54.20;;;;;;6133782;22;114108;-78
2023/07/17 01:22:11;;;;;;;12.13;10.93;;;26.50;54.20;;;;;;6109693;22;114081;-78
2023/07/17 01:24:38;;;;;;;12.25;11.07;;;26.50;54.10;;;;;;6108441;23;114960;-78
2023/07/17 01:27:05;;;;;;;14.75;13.27;;;26.40;54.10;;;;;;6109574;23;114597;-78
2023/07/17 01:29:36;;;;;;;13.25;11.93;;;26.40;54.30;;;;;;6110849;22;114545;-78
2023/07/17 01:32:03;;;;;;;11.73;10.60;;;26.40;54.20;;;;;;6134193;22;114256;-78
2023/07/17 01:34:31;;;;;;;13.85;12.40;;;26.40;54.10;;;;;;6109776;23;114761;-78
2023/07/17 01:36:59;;;;;;;13.85;12.65;;;26.40;54.10;;;;;;6110757;23;114619;-79
2023/07/17 01:39:26;;;;;;;16.55;14.70;;;26.40;54.10;;;;;;6110863;23;114295;-78
2023/07/17 01:41:56;;;;;;;13.68;12.30;;;26.40;54.00;;;;;;6109470;23;114194;-79
2023/07/17 01:44:28;;;;;;;13.07;11.80;;;26.40;54.00;;;;;;6107569;23;115083;-78
2023/07/17 01:46:55;;;;;;;13.75;12.52;;;26.30;54.00;;;;;;6109647;23;114577;-79
2023/07/17 01:49:22;;;;;;;13.05;11.68;;;26.30;54.00;;;;;;6110879;23;114083;-78
2023/07/17 01:51:50;;;;;;;12.25;11.25;;;26.30;54.00;;;;;;6109178;23;114194;-79
2023/07/17 01:54:18;;;;;;;13.27;11.93;;;26.30;54.10;;;;;;6109032;22;114922;-79
2023/07/17 01:56:45;;;;;;;13.63;12.32;;;26.30;54.10;;;;;;6109584;23;115250;-79
2023/07/17 01:59:12;;;;;;;12.52;11.27;;;26.30;54.10;;;;;;6109158;23;114303;-79
2023/07/17 02:01:42;;;;;;;11.77;10.68;;;26.30;54.10;;;;;;6111027;23;114357;-78
2023/07/17 02:04:09;;;;;;;14.73;13.43;;;26.30;54.00;;;;;;6109722;22;114737;-78
2023/07/17 02:06:37;;;;;;;13.25;12.05;;;26.30;54.00;;;;;;6109588;23;114580;-78
2023/07/17 02:09:04;;;;;;;13.10;11.85;;;26.30;53.90;;;;;;6133616;22;113953;-78
2023/07/17 02:11:31;;;;;;;13.38;12.18;;;26.30;54.00;;;;;;6133801;22;114327;-78
2023/07/17 02:13:59;;;;;;;12.75;11.65;;;26.30;54.00;;;;;;6132881;22;114898;-78
2023/07/17 02:16:26;;;;;;;12.45;11.15;;;26.30;53.90;;;;;;6132983;22;114678;-78
2023/07/17 02:18:53;;;;;;;13.35;12.15;;;26.30;54.00;;;;;;6084547;23;114471;-79
2023/07/17 02:21:21;;;;;;;12.45;11.32;;;26.30;53.90;;;;;;6108497;23;114202;-79
2023/07/17 02:23:48;;;;;;;12.07;10.98;;;26.30;53.90;;;;;;6108084;23;115589;-79
2023/07/17 02:26:16;;;;;;;12.73;11.52;;;26.30;53.90;;;;;;6108947;22;116202;-78
2023/07/17 02:28:43;;;;;;;17.02;15.40;;;26.30;53.80;;;;;;6110383;23;113987;-78
2023/07/17 02:31:10;;;;;;;13.70;12.38;;;26.30;53.80;;;;;;6108792;23;114072;-79
2023/07/17 02:33:37;;;;;;;13.45;12.15;;;26.30;53.90;;;;;;6108994;22;114883;-78
2023/07/17 02:36:05;;;;;;;13.85;12.55;;;26.20;53.90;;;;;;6109307;23;115201;-78
2023/07/17 02:38:32;;;;;;;13.02;11.82;;;26.20;53.90;;;;;;6110405;23;114123;-78
2023/07/17 02:41:00;;;;;;;14.80;12.23;;;26.20;53.90;;;;;;6134151;22;114184;-78
2023/07/17 02:43:27;;;;;;;13.27;12.07;;;26.20;53.90;;;;;;6083489;23;114721;-78
2023/07/17 02:45:55;;;;;;;15.50;13.98;;;26.20;53.90;;;;;;6132730;22;115237;-78
2023/07/17 02:48:22;;;;;;;13.18;11.85;;;26.20;54.10;;;;;;6133751;22;114521;-78
2023/07/17 02:50:51;;;;;;;12.57;11.27;;;26.20;54.00;;;;;;6085008;23;114321;-78
2023/07/17 02:53:18;;;;;;;13.23;12.02;;;26.20;54.00;;;;;;6106790;23;114801;-79
2023/07/17 02:55:45;;;;;;;13.73;12.18;;;26.20;53.90;;;;;;6107077;23;114636;-79
2023/07/17 02:58:15;;;;;;;12.40;11.20;;;26.20;53.90;;;;;;6107366;22;114696;-79
2023/07/17 03:00:42;;;;;;;12.43;11.23;;;26.30;53.80;;;;;;6131597;22;114303;-79
2023/07/17 03:03:09;;;;;;;13.00;11.73;;;26.20;53.80;;;;;;6105624;23;116024;-77
2023/07/17 03:05:37;;;;;;;14.20;12.73;;;26.30;53.70;;;;;;6107075;23;114678;-79
2023/07/17 03:08:04;;;;;;;13.93;11.98;;;26.30;53.80;;;;;;6107992;23;114266;-78
2023/07/17 03:10:31;;;;;;;14.25;12.85;;;26.30;53.70;;;;;;6108137;23;114191;-77
2023/07/17 03:12:59;;;;;;;13.00;11.73;;;26.20;53.90;;;;;;6130749;22;114802;-78
2023/07/17 03:15:26;;;;;;;12.25;11.15;;;26.10;54.00;;;;;;6057362;23;114552;-78
2023/07/17 03:17:54;;;;;;;14.77;13.20;;;26.10;54.00;;;;;;6107954;23;114205;-78
2023/07/17 03:20:21;;;;;;;11.90;10.75;;;26.10;54.00;;;;;;6131880;22;114068;-78
2023/07/17 03:22:49;;;;;;;12.93;11.63;;;26.10;54.00;;;;;;6080526;23;114828;-78
2023/07/17 03:25:16;;;;;;;12.65;11.45;;;26.20;53.90;;;;;;6107116;23;114530;-78
2023/07/17 03:27:44;;;;;;;13.20;11.90;;;26.20;53.80;;;;;;6131133;22;114272;-78
2023/07/17 03:30:11;;;;;;;13.70;12.30;;;26.30;53.80;;;;;;6108363;23;114079;-78
2023/07/17 03:32:38;;;;;;;11.98;10.88;;;26.30;53.80;;;;;;6106728;23;114934;-79
2023/07/17 03:35:06;;;;;;;13.07;11.77;;;26.30;53.60;;;;;;6132681;22;114622;-78
2023/07/17 03:37:33;;;;;;;14.27;12.98;;;26.40;53.50;;;;;;6108656;23;114297;-78
2023/07/17 03:40:02;;;;;;;12.70;11.45;;;26.40;53.40;;;;;;6134053;22;114399;-78
2023/07/17 03:42:31;;;;;;;14.18;12.70;;;26.40;53.30;;;;;;6107664;23;114772;-78
2023/07/17 03:44:59;;;;;;;13.77;12.32;;;26.40;53.40;;;;;;6107838;23;114628;-78
2023/07/17 03:47:32;;;;;;;12.95;11.52;;;26.40;53.20;;;;;;6132743;22;114389;-78
2023/07/17 03:49:59;;;;;;;16.05;12.95;;;26.40;53.30;;;;;;6133309;22;113997;-78
2023/07/17 03:52:27;;;;;;;12.90;11.63;;;26.50;53.40;;;;;;6132150;22;116805;-78
2023/07/17 03:54:54;;;;;;;13.38;12.10;;;26.40;53.30;;;;;;6082058;22;1179798;-78
2023/07/17 03:57:21;;;;;;;12.70;11.57;;;26.40;53.30;;;;;;6085230;23;114407;-78
2023/07/17 03:59:51;;;;;;;14.10;11.75;;;26.40;53.30;;;;;;6134926;22;114140;-78
2023/07/17 04:02:22;;;;;;;17.75;15.82;;;26.40;53.30;;;;;;6133703;22;115434;-78
2023/07/17 04:04:51;;;;;;;14.73;13.32;;;26.40;53.90;;;;;;6109383;23;114558;-77
2023/07/17 04:07:21;;;;;;;13.25;12.00;;;26.30;53.80;;;;;;6109898;23;114153;-78
2023/07/17 04:09:48;;;;;;;14.18;12.43;;;26.30;53.80;;;;;;6084921;23;114786;-78
2023/07/17 04:12:15;;;;;;;11.93;10.70;;;26.30;53.60;;;;;;6108193;23;114863;-79
2023/07/17 04:14:42;;;;;;;14.00;12.80;;;26.30;53.60;;;;;;6133876;22;114609;-78
2023/07/17 04:17:10;;;;;;;15.43;13.90;;;26.30;53.80;;;;;;6134710;22;114162;-78
2023/07/17 04:19:38;;;;;;;17.83;16.08;;;26.20;54.00;;;;;;6134767;22;114396;-77
2023/07/17 04:22:05;;;;;;;14.50;13.07;;;26.20;54.30;;;;;;6133516;22;114859;-79
2023/07/17 04:24:34;;;;;;;13.90;12.60;;;26.20;54.10;;;;;;6133535;22;114888;-78
2023/07/17 04:27:02;;;;;;;15.93;13.93;;;26.10;54.10;;;;;;6134322;22;114355;-78
2023/07/17 04:29:29;;;;;;;13.07;11.98;;;26.10;54.20;;;;;;6134789;22;114268;-78
2023/07/17 04:32:01;;;;;;;16.20;14.68;;;26.10;54.10;;;;;;6108614;23;114997;-79
2023/07/17 04:34:28;;;;;;;15.98;13.95;;;26.00;54.60;;;;;;6133511;22;115217;-79
2023/07/17 04:36:55;;;;;;;15.60;14.10;;;26.00;54.80;;;;;;6133710;22;114223;-79
2023/07/17 04:39:24;;;;;;;20.58;18.60;;;25.80;54.90;;;;;;6109513;23;114275;-78
2023/07/17 04:41:52;;;;;;;19.58;17.60;;;25.70;55.80;;;;;;6133600;22;115372;-78
2023/07/17 04:44:20;;;;;;;23.15;20.85;;;25.40;56.50;;;;;;6133367;22;114884;-78
2023/07/17 04:46:47;;;;;;;20.23;18.42;;;25.20;57.60;;;;;;6109267;23;114156;-78
2023/07/17 04:49:15;;;;;;;19.80;17.92;;;25.00;57.80;;;;;;6085129;23;114318;-78
2023/07/17 04:51:42;;;;;;;23.27;21.20;;;24.80;58.20;;;;;;6133382;22;115027;-78
2023/07/17 04:54:09;;;;;;;21.85;19.88;;;24.70;58.80;;;;;;6110246;23;114670;-79
2023/07/17 04:56:36;;;;;;;19.27;17.42;;;24.60;58.70;;;;;;6110765;23;114333;-78
2023/07/17 04:59:08;;;;;;;19.15;17.23;;;24.40;58.90;;;;;;6109305;23;114108;-78
2023/07/17 05:01:36;;;;;;;15.15;13.75;;;24.40;59.40;;;;;;6132762;22;114849;-78
2023/07/17 05:04:04;;;;;;;14.68;13.35;;;24.60;58.60;;;;;;6133330;22;114602;-79
2023/07/17 05:06:31;;;;;;;15.10;13.63;;;24.70;58.20;;;;;;6134563;22;114237;-78
2023/07/17 05:08:59;;;;;;;12.70;11.45;;;24.80;58.10;;;;;;6085117;23;114360;-79
2023/07/17 05:11:32;;;;;;;9.77;8.82;;;24.80;57.40;;;;;;6133136;22;115391;-78
2023/07/17 05:13:59;;;;;;;11.35;10.23;;;24.80;56.70;;;;;;6109873;22;114555;-78
2023/07/17 05:16:26;;;;;;;8.40;7.60;;;24.80;57.20;;;;;;6110644;23;114143;-79
2023/07/17 05:18:53;;;;;;;10.75;9.65;;;24.90;55.90;;;;;;6085658;23;114029;-78
2023/07/17 05:21:21;;;;;;;7.30;5.72;;;25.10;56.50;;;;;;6112422;23;115404;-78
2023/07/17 05:23:49;;;;;;;8.35;7.50;;;25.30;54.80;;;;;;6060081;23;115087;-78
2023/07/17 05:26:19;;;;;;;8.20;6.97;;;25.60;54.80;;;;;;6133377;22;114191;-78
2023/07/17 05:28:50;;;;;;;7.45;4.60;;;25.80;53.90;;;;;;6110965;23;114040;-78
2023/07/17 05:31:17;;;;;;;8.65;7.85;;;26.10;52.40;;;;;;6133165;22;114838;-78
2023/07/17 05:33:45;;;;;;;6.78;4.95;;;26.30;53.50;;;;;;6133261;22;115912;-78
2023/07/17 05:36:12;;;;;;;6.22;4.43;;;26.50;51.50;;;;;;6109225;23;114466;-79
2023/07/17 05:38:39;;;;;;;8.77;7.88;;;26.60;51.30;;;;;;6084773;23;114393;-78
2023/07/17 05:41:07;;;;;;;7.00;4.15;;;26.60;51.80;;;;;;6133237;22;114852;-78
2023/07/17 05:43:35;;;;;;;7.18;3.67;;;26.50;50.90;;;;;;6133852;22;114603;-78
2023/07/17 05:46:14;;;;;;;7.47;4.60;;;26.60;50.80;;;;;;6134200;22;114374;-78
2023/07/17 05:48:41;;;;;;;5.60;4.38;;;26.50;50.20;;;;;;6110803;23;114131;-78
2023/07/17 05:51:09;;;;;;;6.35;4.45;;;26.30;50.40;;;;;;6109194;23;114852;-78
2023/07/17 05:53:36;;;;;;;7.15;4.53;;;26.10;50.90;;;;;;6132690;22;115532;-78
2023/07/17 05:56:03;;;;;;;7.72;5.45;;;25.80;51.40;;;;;;6108728;22;114201;-78
2023/07/17 05:58:35;;;;;;;6.55;4.50;;;25.40;52.70;;;;;;6134026;22;114613;-78
2023/07/17 06:01:04;;;;;;;6.30;4.63;;;25.30;52.90;;;;;;6133064;22;114776;-78
2023/07/17 06:03:31;;;;;;;7.03;5.53;;;25.30;53.40;;;;;;6083928;23;114507;-78
2023/07/17 06:05:58;;;;;;;7.57;4.57;;;25.10;54.00;;;;;;6110664;23;114183;-79
2023/07/17 06:08:25;;;;;;;7.40;4.72;;;25.10;53.80;;;;;;6111067;23;114533;-79
2023/07/17 06:10:52;;;;;;;8.02;4.88;;;25.00;54.00;;;;;;6109748;23;115359;-78
2023/07/17 06:13:20;;;;;;;6.32;4.38;;;24.80;54.50;;;;;;6083583;23;114766;-78
2023/07/17 06:15:48;;;;;;;7.88;5.20;;;24.80;54.40;;;;;;6108572;23;114469;-78
2023/07/17 06:18:16;;;;;;;6.38;4.40;;;24.70;55.20;;;;;;6110724;23;114071;-77
2023/07/17 06:20:43;;;;;;;7.10;4.30;;;24.80;54.60;;;;;;6109641;23;115563;-79
2023/07/17 06:23:10;;;;;;;7.32;4.40;;;24.90;54.20;;;;;;6109645;23;114630;-77
2023/07/17 06:25:38;;;;;;;6.43;5.20;;;24.90;54.20;;;;;;6110618;22;114231;-78
2023/07/17 06:28:08;;;;;;;6.50;4.80;;;24.80;55.00;;;;;;6110218;23;114187;-78
2023/07/17 06:30:35;;;;;;;6.55;4.13;;;25.10;54.70;;;;;;6108119;23;116016;-78
2023/07/17 06:33:02;;;;;;;7.75;4.70;;;25.30;53.50;;;;;;6109932;23;114608;-78
2023/07/17 06:35:30;;;;;;;5.75;4.85;;;25.00;53.90;;;;;;6108991;23;114289;-78
2023/07/17 06:37:57;;;;;;;7.75;4.55;;;24.80;55.20;;;;;;6110449;23;114186;-78
2023/07/17 06:40:24;;;;;;;6.15;4.28;;;24.90;54.00;;;;;;6108937;23;115072;-78
2023/07/17 06:42:51;;;;;;;6.65;4.40;;;24.70;54.70;;;;;;6107779;23;114621;-78
2023/07/17 06:45:19;;;;;;;7.30;4.35;;;24.50;55.50;;;;;;6133655;22;114364;-78
2023/07/17 06:47:47;;;;;;;7.43;4.57;;;24.30;56.00;;;;;;6108959;23;114074;-78
2023/07/17 06:50:14;;;;;;;8.48;4.75;;;24.30;55.90;;;;;;6109435;23;114953;-78
2023/07/17 06:52:41;;;;;;;8.35;4.60;;;24.20;56.40;;;;;;6109685;23;114595;-78
2023/07/17 06:55:08;;;;;;;7.57;4.90;;;24.20;56.70;;;;;;6113988;22;114224;-78
2023/07/17 06:57:39;;;;;;;8.38;4.97;;;24.20;57.00;;;;;;6108859;23;114299;-78
2023/07/17 07:00:06;;;;;;;8.73;4.50;;;24.10;57.20;;;;;;6109268;23;116207;-79
2023/07/17 07:02:34;;;;;;;6.45;4.28;;;24.10;57.10;;;;;;6109583;23;114534;-79
2023/07/17 07:05:04;;;;;;;5.50;4.25;;;24.10;57.50;;;;;;6084043;23;114208;-78
2023/07/17 07:07:31;;;;;;;7.50;4.03;;;24.10;57.40;;;;;;6110116;23;114287;-78
2023/07/17 07:09:58;;;;;;;9.63;4.47;;;24.10;56.90;;;;;;6109159;23;114852;-78
2023/07/17 07:12:25;;;;;;;6.63;4.22;;;24.10;57.30;;;;;;6109173;23;114674;-77
2023/07/17 07:14:52;;;;;;;7.50;3.85;;;24.10;57.50;;;;;;6108617;23;114155;-79
2023/07/17 07:17:22;;;;;;;5.90;3.80;;;24.30;56.80;;;;;;6108590;23;114130;-78
2023/07/17 07:19:53;;;;;;;6.05;3.58;;;24.30;56.70;;;;;;6107644;23;114765;-78
2023/07/17 07:22:20;;;;;;;4.53;3.40;;;24.40;56.00;;;;;;6108024;23;114615;-78
2023/07/17 07:24:47;;;;;;;4.18;3.28;;;24.50;55.90;;;;;;6109964;23;113968;-78
2023/07/17 07:27:14;;;;;;;5.82;3.45;;;24.40;55.60;;;;;;6108254;23;114355;-78
2023/07/17 07:29:41;;;;;;;5.70;3.45;;;24.50;55.90;;;;;;6108633;23;114888;-78
2023/07/17 07:32:08;;;;;;;5.38;3.50;;;24.60;55.80;;;;;;6109178;23;114574;-78
2023/07/17 07:34:37;;;;;;;4.95;3.55;;;24.80;55.60;;;;;;6109903;23;114336;-78
2023/07/17 07:37:05;;;;;;;6.50;4.22;;;24.80;55.40;;;;;;6108385;23;114376;-79
2023/07/17 07:39:32;;;;;;;5.32;3.80;;;24.80;55.40;;;;;;6108978;23;114952;-78
2023/07/17 07:42:00;;;;;;;5.03;3.90;;;24.80;55.50;;;;;;6107654;23;114558;-78
2023/07/17 07:44:28;;;;;;;6.03;4.65;;;24.90;55.80;;;;;;6109562;23;114410;-78
2023/07/17 07:46:55;;;;;;;7.03;4.85;;;25.00;55.80;;;;;;6110155;23;114374;-79
2023/07/17 07:49:22;;;;;;;5.60;4.75;;;24.90;56.00;;;;;;6110196;23;116091;-78
2023/07/17 07:51:50;;;;;;;5.32;3.90;;;24.80;56.10;;;;;;6108810;23;114621;-79
2023/07/17 07:54:17;;;;;;;5.40;4.10;;;24.90;56.00;;;;;;6107336;23;114224;-79
2023/07/17 07:56:49;;;;;;;7.03;5.07;;;25.10;55.70;;;;;;6109485;23;114193;-78
2023/07/17 07:59:16;;;;;;;6.10;4.07;;;25.30;55.80;;;;;;6083234;23;115031;-78
2023/07/17 08:01:43;;;;;;;7.63;5.43;;;25.60;54.90;;;;;;6107902;23;115107;-79
2023/07/17 08:04:10;;;;;;;5.63;4.15;;;25.80;55.10;;;;;;6110199;23;114114;-79
2023/07/17 08:06:38;;;;;;;6.20;5.60;;;26.00;53.90;;;;;;6108896;23;114130;-79
2023/07/17 08:09:05;;;;;;;4.80;4.35;;;26.10;53.90;;;;;;6109169;23;114860;-79
2023/07/17 08:11:33;;;;;;;6.18;4.95;;;26.30;53.30;;;;;;6108326;23;114622;-79
2023/07/17 08:14:00;;;;;;;6.28;4.53;;;26.40;52.90;;;;;;6109669;23;114105;-79
2023/07/17 08:16:28;;;;;;;7.75;5.57;;;26.50;53.00;;;;;;6109817;23;114386;-79
2023/07/17 08:18:59;;;;;;;6.50;4.13;;;26.60;53.10;;;;;;6109383;22;115160;-78
2023/07/17 08:21:27;;;;;;;5.75;5.18;;;26.60;52.50;;;;;;6108761;23;114552;-79
2023/07/17 08:23:54;;;;;;;9.50;5.78;;;26.70;52.70;;;;;;6111715;23;114060;-78
2023/07/17 08:26:21;;;;;;;7.68;5.72;;;26.80;52.50;;;;;;6109792;23;114452;-79
2023/07/17 08:28:48;;;;;;;6.28;5.43;;;26.80;52.40;;;;;;6108738;23;114858;-79
2023/07/17 08:31:16;;;;;;;7.25;5.13;;;26.90;52.20;;;;;;6133599;22;115798;-78
2023/07/17 08:33:43;;;;;;;7.57;6.15;;;26.80;52.30;;;;;;6110950;22;114397;-78
2023/07/17 08:36:10;;;;;;;6.30;4.80;;;26.90;52.50;;;;;;6111398;22;114381;-78
2023/07/17 08:38:37;;;;;;;8.55;6.35;;;26.80;52.10;;;;;;6109973;23;116088;-79
2023/07/17 08:41:04;;;;;;;7.88;5.95;;;26.80;53.10;;;;;;6110075;23;114540;-78
2023/07/17 08:43:31;;;;;;;6.72;6.00;;;26.90;52.40;;;;;;6084023;23;114392;-77
2023/07/17 08:45:59;;;;;;;7.53;6.75;;;27.00;52.20;;;;;;6109377;23;114272;-78
2023/07/17 08:48:27;;;;;;;9.07;7.10;;;26.90;52.10;;;;;;6109681;22;116451;-77
2023/07/17 08:50:56;;;;;;;8.60;7.70;;;26.90;52.20;;;;;;6108478;23;114728;-79
2023/07/17 08:53:24;;;;;;;7.90;6.32;;;27.00;52.30;;;;;;6109529;23;113951;-78
2023/07/17 08:55:53;;;;;;;7.88;6.75;;;27.00;52.30;;;;;;6108838;23;114429;-78
2023/07/17 08:58:22;;;;;;;8.82;7.82;;;27.00;51.60;;;;;;6109843;23;116230;-78
2023/07/17 09:00:50;;;;;;;9.85;7.78;;;26.90;52.20;;;;;;6110258;23;114650;-78
2023/07/17 09:03:17;;;;;;;8.98;8.10;;;27.00;52.30;;;;;;6111076;22;114002;-79
2023/07/17 09:05:45;;;;;;;10.65;9.63;;;27.10;52.00;;;;;;6109466;23;114377;-78
2023/07/17 09:08:12;;;;;;;10.43;9.32;;;27.30;51.80;;;;;;6109067;22;116950;-79
2023/07/17 09:10:39;;;;;;;10.07;8.55;;;27.30;51.70;;;;;;6109759;23;114543;-79
2023/07/17 09:13:06;;;;;;;7.38;6.68;;;27.30;51.60;;;;;;6109229;23;114211;-79
2023/07/17 09:15:33;;;;;;;8.15;6.85;;;27.50;51.20;;;;;;6110667;23;114199;-78
2023/07/17 09:18:01;;;;;;;9.40;8.02;;;27.50;51.20;;;;;;6109802;23;114869;-78
2023/07/17 09:20:29;;;;;;;6.47;5.63;;;27.50;52.20;;;;;;6109751;23;116669;-78
2023/07/17 09:22:59;;;;;;;8.07;6.20;;;27.50;51.50;;;;;;6108987;23;114145;-78
2023/07/17 09:25:27;;;;;;;7.60;5.43;;;27.50;51.80;;;;;;6109658;23;114318;-79
2023/07/17 09:27:55;;;;;;;7.35;4.78;;;27.40;51.80;;;;;;6109643;23;114846;-79
2023/07/17 09:30:23;;;;;;;5.13;4.57;;;27.40;51.10;;;;;;6107790;23;114822;-78
2023/07/17 09:32:51;;;;;;;6.80;5.10;;;27.30;51.20;;;;;;6110348;23;114227;-78
2023/07/17 09:35:23;;;;;;;4.97;4.47;;;27.20;51.30;;;;;;6109649;22;114233;-78
2023/07/17 09:37:51;;;;;;;5.13;4.27;;;27.00;51.70;;;;;;6109696;23;115142;-80
2023/07/17 09:40:18;;;;;;;5.55;3.90;;;26.80;52.10;;;;;;6108250;23;114661;-79
2023/07/17 09:42:55;;;;;;;6.53;4.40;;;26.80;52.40;;;;;;6110520;23;114106;-81
2023/07/17 09:45:23;;;;;;;5.20;4.05;;;26.80;52.40;;;;;;6109016;23;114353;-78
2023/07/17 09:47:50;;;;;;;6.53;4.68;;;26.60;52.60;;;;;;6108187;23;114794;-78
2023/07/17 09:50:23;;;;;;;5.97;4.30;;;26.50;52.70;;;;;;6109996;23;114446;-78
2023/07/17 09:52:51;;;;;;;5.53;4.00;;;26.40;52.80;;;;;;6109236;23;114053;-78
2023/07/17 09:55:19;;;;;;;5.05;4.25;;;26.30;52.80;;;;;;6110019;23;114177;-78
2023/07/17 09:57:46;;;;;;;5.18;4.45;;;26.30;53.30;;;;;;6132424;22;114931;-78
2023/07/17 10:00:18;;;;;;;7.38;4.72;;;26.20;53.30;;;;;;6109633;23;114929;-78
2023/07/17 10:03:04;;;;;;;5.15;4.35;;;26.00;53.90;;;;;;6108318;23;114082;-78
2023/07/17 10:05:32;;;;;;;5.68;4.07;;;25.90;53.80;;;;;;6110247;23;114222;-78
2023/07/17 10:07:59;;;;;;;5.32;4.03;;;25.80;54.20;;;;;;6109564;23;114976;-77
2023/07/17 10:10:27;;;;;;;7.40;3.63;;;25.80;54.40;;;;;;6108064;23;114741;-78
2023/07/17 10:12:55;;;;;;;5.32;3.70;;;25.70;54.60;;;;;;6110546;23;114322;-78
2023/07/17 10:15:23;;;;;;;6.22;4.10;;;25.50;54.90;;;;;;6109727;23;114406;-79
2023/07/17 10:17:56;;;;;;;6.50;4.30;;;25.30;55.10;;;;;;6107859;23;116263;-78
2023/07/17 10:20:25;;;;;;;7.03;4.20;;;25.40;55.20;;;;;;6109523;23;114609;-78
2023/07/17 10:22:52;;;;;;;5.63;3.92;;;25.50;55.10;;;;;;6108268;23;114250;-77
2023/07/17 10:25:19;;;;;;;4.60;3.90;;;25.60;55.20;;;;;;6110152;23;114196;-79
2023/07/17 10:27:59;;;;;;;6.63;4.07;;;25.60;54.70;;;;;;6109175;23;114809;-80
2023/07/17 10:30:34;;;;;;;8.98;4.70;;;25.80;54.60;;;;;;6108111;23;114633;-79
2023/07/17 10:33:16;;;;;;;5.35;4.25;;;25.80;55.20;;;;;;6108861;23;114304;-79
2023/07/17 10:35:47;;;;;;;6.68;4.10;;;25.80;55.00;;;;;;6110373;22;114345;-79
2023/07/17 10:38:17;;;;;;;8.82;4.78;;;25.70;55.90;;;;;;6109327;22;114881;-79
2023/07/17 10:40:44;;;;;;;8.05;5.22;;;25.70;56.60;;;;;;6109609;23;114625;-79
2023/07/17 10:43:18;;;;;;;8.85;5.32;;;25.60;57.10;;;;;;6110851;22;114106;-79
2023/07/17 10:45:47;;;;;;;9.02;5.50;;;25.60;56.50;;;;;;6110299;23;114182;-79
2023/07/17 10:48:15;;;;;;;6.95;5.38;;;25.50;57.30;;;;;;6108663;23;115437;-79
2023/07/17 10:50:50;;;;;;;7.60;4.78;;;25.40;57.40;;;;;;6107790;23;114591;-77
2023/07/17 10:53:18;;;;;;;8.05;6.15;;;25.30;57.70;;;;;;6108846;23;114473;-78
2023/07/17 10:55:46;;;;;;;6.28;4.68;;;25.20;58.30;;;;;;6109966;23;114216;-78
2023/07/17 10:58:13;;;;;;;9.00;5.82;;;25.00;57.50;;;;;;6107766;23;115360;-78
2023/07/17 11:00:42;;;;;;;8.95;5.72;;;25.00;58.10;;;;;;6107795;23;114639;-79
2023/07/17 11:03:22;;;;;;;7.43;5.20;;;25.00;57.90;;;;;;6133692;22;114214;-78
2023/07/17 11:05:50;;;;;;;7.60;4.75;;;25.00;57.70;;;;;;6110632;22;114394;-79
2023/07/17 11:08:17;;;;;;;5.53;4.13;;;24.70;58.10;;;;;;6108020;22;115933;-78
2023/07/17 11:10:44;;;;;;;7.20;5.05;;;24.70;57.90;;;;;;6109632;23;114920;-78
2023/07/17 11:13:11;;;;;;;5.80;4.50;;;24.80;58.10;;;;;;6109489;23;114286;-80
2023/07/17 11:15:38;;;;;;;7.25;4.35;;;25.00;57.50;;;;;;6110063;23;114172;-78
2023/07/17 11:18:07;;;;;;;5.82;4.40;;;25.10;57.20;;;;;;6107561;23;114899;-78
2023/07/17 11:20:35;;;;;;;8.93;5.80;;;25.30;57.10;;;;;;6109125;23;116605;-78
2023/07/17 11:23:03;;;;;;;6.22;4.78;;;25.40;57.70;;;;;;6110251;23;114194;-78
2023/07/17 11:25:32;;;;;;;5.78;4.75;;;25.30;56.50;;;;;;6084215;23;114415;-78
2023/07/17 11:27:59;;;;;;;7.22;5.00;;;25.30;56.60;;;;;;6107386;23;114915;-78
2023/07/17 11:30:30;;;;;;;7.20;4.72;;;25.40;56.60;;;;;;6132835;22;115910;-78
2023/07/17 11:32:57;;;;;;;7.40;4.85;;;25.50;56.90;;;;;;6109829;23;114338;-78
2023/07/17 11:35:40;;;;;;;8.90;5.18;;;25.50;56.90;;;;;;6109803;23;114065;-78
2023/07/17 11:38:19;;;;;;;9.27;5.37;;;25.30;56.60;;;;;;6106843;23;116159;-78
2023/07/17 11:40:57;;;;;;;6.75;5.32;;;24.90;58.30;;;;;;6108958;22;114723;-78
2023/07/17 11:43:25;;;;;;;7.82;4.95;;;24.60;58.60;;;;;;6133398;22;114448;-78
2023/07/17 11:45:56;;;;;;;7.40;5.22;;;24.50;59.50;;;;;;6108429;23;114486;-78
2023/07/17 11:48:26;;;;;;;7.32;5.30;;;24.80;58.70;;;;;;6109638;22;116064;-78
2023/07/17 11:50:56;;;;;;;8.65;5.70;;;24.80;58.70;;;;;;6107440;23;114717;-77
2023/07/17 11:53:24;;;;;;;7.25;5.05;;;24.80;58.70;;;;;;6110278;23;114183;-77
2023/07/17 11:55:52;;;;;;;6.35;4.70;;;24.80;58.30;;;;;;6110757;23;114434;-77
2023/07/17 11:58:24;;;;;;;7.55;5.50;;;25.00;57.90;;;;;;6110075;22;114849;-77
2023/07/17 12:00:55;;;;;;;7.43;5.00;;;25.20;58.50;;;;;;6133601;22;115955;-78
2023/07/17 12:03:23;;;;;;;8.27;5.03;;;25.30;57.50;;;;;;6110276;23;114298;-78
2023/07/17 12:05:50;;;;;;;7.07;5.22;;;25.30;57.50;;;;;;6110855;23;113997;-77
2023/07/17 12:08:17;;;;;;;7.20;4.40;;;25.30;57.40;;;;;;6110159;23;115238;-78
2023/07/17 12:10:44;;;;;;;7.57;5.70;;;25.30;56.80;;;;;;6110184;23;114566;-78
2023/07/17 12:13:11;;;;;;;7.25;4.88;;;25.30;57.50;;;;;;6110972;23;114107;-78
2023/07/17 12:15:38;;;;;;;7.28;4.65;;;25.20;57.10;;;;;;6109022;23;114234;-78
2023/07/17 12:18:05;;;;;;;6.30;4.85;;;25.00;57.80;;;;;;6108495;23;114904;-78
2023/07/17 12:20:33;;;;;;;6.78;4.68;;;24.80;58.00;;;;;;6108965;23;114528;-78
2023/07/17 12:23:00;;;;;;;6.80;5.22;;;24.80;58.00;;;;;;6109559;23;114330;-78
2023/07/17 12:25:28;;;;;;;8.23;5.20;;;25.00;58.10;;;;;;6110880;23;114051;-79
2023/07/17 12:27:58;;;;;;;6.32;5.30;;;25.20;57.40;;;;;;6083179;23;115298;-78
2023/07/17 12:30:26;;;;;;;5.82;4.78;;;25.10;58.00;;;;;;6109931;23;115108;-78
2023/07/17 12:32:57;;;;;;;9.00;6.28;;;24.80;58.30;;;;;;6085473;23;114512;-78